Time;durP1;ratioP1;P1;durP2;ratioP2;P2;SDS_P1;SDS_P2;PMS_P1;PMS_P2;Temp;Humidity;BMP_temperature;BMP_pressure;BME280_temperature;BME280_humidity;BME280_pressure;Samples;Min_cycle;Max_cycle;Signal;HPM_P1;HPM_P2
2022/10/29 00:00:54;;;;;;;12.52;7.20;;;18.70;99.90;;;;;;5044398;28;20082;-75
2022/10/29 00:03:23;;;;;;;11.85;7.28;;;18.70;99.90;;;;;;5034319;28;20052;-75
2022/10/29 00:05:55;;;;;;;10.95;7.57;;;18.70;99.90;;;;;;5034143;28;20190;-74
2022/10/29 00:08:23;;;;;;;12.13;6.85;;;18.70;99.90;;;;;;5066367;28;20040;-74
2022/10/29 00:10:51;;;;;;;11.82;6.93;;;18.70;99.90;;;;;;5067500;28;20603;-75
2022/10/29 00:13:18;;;;;;;14.82;7.78;;;18.70;99.90;;;;;;5068068;28;20097;-74
2022/10/29 00:15:46;;;;;;;12.98;7.75;;;18.70;99.90;;;;;;5067115;28;20574;-75
2022/10/29 00:18:14;;;;;;;22.02;7.72;;;18.70;99.90;;;;;;5050515;28;20464;-75
2022/10/29 00:20:41;;;;;;;11.52;7.10;;;18.70;99.90;;;;;;5061865;28;20048;-76
2022/10/29 00:23:09;;;;;;;17.08;8.07;;;18.70;99.90;;;;;;5067228;28;20052;-76
2022/10/29 00:25:36;;;;;;;16.58;8.50;;;18.70;99.90;;;;;;5064069;28;20060;-75
2022/10/29 00:28:04;;;;;;;16.00;7.95;;;18.70;99.90;;;;;;5067420;28;20046;-74
2022/10/29 00:30:34;;;;;;;13.25;7.68;;;18.60;99.90;;;;;;5069090;28;20777;-74
2022/10/29 00:33:01;;;;;;;17.42;7.45;;;18.60;99.90;;;;;;5064635;28;20041;-73
2022/10/29 00:35:29;;;;;;;12.35;7.22;;;18.70;99.90;;;;;;5049831;28;20079;-73
2022/10/29 00:37:57;;;;;;;18.35;7.65;;;18.60;99.90;;;;;;5066368;28;20115;-72
2022/10/29 00:40:24;;;;;;;11.95;6.75;;;18.60;99.90;;;;;;5067642;28;20076;-72
2022/10/29 00:42:52;;;;;;;15.07;6.60;;;18.70;99.90;;;;;;5064122;28;20045;-72
2022/10/29 00:45:20;;;;;;;11.73;7.10;;;18.70;99.90;;;;;;5065836;28;20102;-72
2022/10/29 00:47:52;;;;;;;15.35;7.07;;;18.70;99.90;;;;;;5070048;28;20138;-71
2022/10/29 00:50:22;;;;;;;14.80;7.15;;;18.60;99.90;;;;;;5047438;28;20114;-73
2022/10/29 00:52:51;;;;;;;12.80;7.22;;;18.60;99.90;;;;;;5056735;28;20063;-75
2022/10/29 00:55:19;;;;;;;10.70;7.85;;;18.60;99.90;;;;;;5046444;28;20067;-74
2022/10/29 00:57:53;;;;;;;13.23;7.28;;;18.60;99.90;;;;;;5059271;28;20525;-74
2022/10/29 01:00:21;;;;;;;16.65;8.18;;;18.60;99.90;;;;;;5067479;28;20154;-74
2022/10/29 01:02:49;;;;;;;15.57;7.28;;;18.60;99.90;;;;;;5047726;28;20067;-74
2022/10/29 01:05:20;;;;;;;12.00;7.03;;;18.60;99.90;;;;;;5066496;28;20057;-73
2022/10/29 01:07:48;;;;;;;13.27;7.75;;;18.60;99.90;;;;;;5062378;28;20045;-74
2022/10/29 01:10:21;;;;;;;12.35;8.00;;;18.60;99.90;;;;;;5050863;28;20137;-72
2022/10/29 01:13:26;;;;;;;12.82;6.93;;;18.60;99.90;;;;;;5023587;28;20737;-77
2022/10/29 01:16:25;;;;;;;17.35;7.47;;;18.60;99.90;;;;;;5033658;28;20052;-74
2022/10/29 01:19:04;;;;;;;15.57;7.88;;;18.60;99.90;;;;;;5064858;28;20060;-73
2022/10/29 01:22:14;;;;;;;17.40;7.38;;;18.60;99.90;;;;;;5037540;28;20537;-74
2022/10/29 01:25:04;;;;;;;11.73;8.55;;;18.60;99.90;;;;;;5056386;28;20040;-73
2022/10/29 01:27:57;;;;;;;13.85;7.32;;;18.60;99.90;;;;;;5051261;28;20084;-73
2022/10/29 01:30:53;;;;;;;16.95;7.82;;;18.50;99.90;;;;;;5058870;28;20041;-73
2022/10/29 01:33:26;;;;;;;12.35;7.45;;;18.50;99.90;;;;;;5064973;28;20553;-74
2022/10/29 01:36:18;;;;;;;21.05;7.60;;;18.50;99.90;;;;;;5075948;28;20102;-73
2022/10/29 01:38:58;;;;;;;12.65;7.65;;;18.50;99.90;;;;;;5058849;28;20060;-74
2022/10/29 01:41:33;;;;;;;11.55;8.48;;;18.50;99.90;;;;;;5058807;28;20143;-74
2022/10/29 01:44:36;;;;;;;13.65;7.18;;;18.50;99.90;;;;;;5059107;28;20032;-74
2022/10/29 01:47:10;;;;;;;18.10;8.57;;;18.50;99.90;;;;;;5073544;28;20043;-74
2022/10/29 01:49:44;;;;;;;25.45;8.93;;;18.50;99.90;;;;;;5076015;28;20147;-75
2022/10/29 01:52:15;;;;;;;18.33;10.45;;;18.50;99.90;;;;;;5070725;28;20048;-76
2022/10/29 01:54:45;;;;;;;16.25;8.10;;;18.50;99.90;;;;;;5099599;28;20060;-74
2022/10/29 01:57:42;;;;;;;13.48;8.10;;;18.50;99.90;;;;;;5067405;28;20041;-75
2022/10/29 02:00:13;;;;;;;13.73;7.45;;;18.50;99.90;;;;;;5068242;28;20036;-74
2022/10/29 02:02:53;;;;;;;17.95;8.80;;;18.50;99.90;;;;;;5047034;28;20105;-71
2022/10/29 02:05:39;;;;;;;12.88;7.75;;;18.50;99.90;;;;;;5058884;28;20097;-71
2022/10/29 02:08:38;;;;;;;13.25;8.23;;;18.50;99.90;;;;;;5085026;28;20071;-73
2022/10/29 02:11:24;;;;;;;21.42;7.88;;;18.50;99.90;;;;;;5080883;28;20064;-74
2022/10/29 02:13:58;;;;;;;;;;;18.50;99.90;;;;;;5071024;28;20510;-73
2022/10/29 02:16:27;;;;;;;15.77;7.30;;;18.50;99.90;;;;;;5053721;28;19928;-74
2022/10/29 02:18:56;;;;;;;18.08;9.48;;;18.50;99.90;;;;;;5068599;28;20044;-73
2022/10/29 02:21:24;;;;;;;13.52;8.05;;;18.50;99.90;;;;;;5056663;28;20059;-74
2022/10/29 02:23:52;;;;;;;11.25;7.43;;;18.50;99.90;;;;;;5078136;28;20032;-73
2022/10/29 02:26:20;;;;;;;15.68;7.95;;;18.50;99.90;;;;;;5077703;28;20573;-74
2022/10/29 02:28:48;;;;;;;13.93;8.27;;;18.50;99.90;;;;;;5088684;28;20044;-74
2022/10/29 02:31:15;;;;;;;14.88;8.57;;;18.40;99.90;;;;;;5037117;28;20064;-74
2022/10/29 02:33:43;;;;;;;17.25;8.70;;;18.40;99.90;;;;;;5076503;28;20443;-74
2022/10/29 02:36:10;;;;;;;14.40;7.80;;;18.40;99.90;;;;;;5075290;28;20056;-74
2022/10/29 02:38:38;;;;;;;12.43;7.47;;;18.40;99.90;;;;;;5071961;28;20040;-74
2022/10/29 02:41:06;;;;;;;13.00;8.15;;;18.40;99.90;;;;;;5058682;28;20073;-77
2022/10/29 02:43:33;;;;;;;11.32;7.57;;;18.40;99.90;;;;;;5080210;28;20047;-73
2022/10/29 02:46:30;;;;;;;15.85;7.88;;;18.40;99.90;;;;;;5088051;28;20071;-75
2022/10/29 02:48:58;;;;;;;13.88;7.25;;;18.40;99.90;;;;;;5062053;28;20045;-75
2022/10/29 02:51:25;;;;;;;15.32;8.65;;;18.40;99.90;;;;;;5066653;28;20057;-75
2022/10/29 02:53:53;;;;;;;15.60;8.48;;;18.40;99.90;;;;;;5063468;28;20055;-75
2022/10/29 02:56:20;;;;;;;15.35;7.70;;;18.40;99.90;;;;;;5078484;28;20441;-73
2022/10/29 02:58:48;;;;;;;14.68;8.25;;;18.40;99.90;;;;;;5053714;28;20410;-75
2022/10/29 03:01:15;;;;;;;13.43;6.68;;;18.40;99.90;;;;;;5049893;28;20431;-75
2022/10/29 03:03:43;;;;;;;13.68;7.85;;;18.40;99.90;;;;;;5080471;28;20048;-74
2022/10/29 03:06:15;;;;;;;16.25;7.43;;;18.40;99.90;;;;;;5062942;28;20078;-75
2022/10/29 03:08:44;;;;;;;11.70;7.53;;;18.30;99.90;;;;;;5080046;28;20045;-73
2022/10/29 03:11:12;;;;;;;12.80;8.55;;;18.40;99.90;;;;;;5069828;28;20054;-75
2022/10/29 03:13:39;;;;;;;12.95;7.30;;;18.40;99.90;;;;;;5044301;28;20060;-78
2022/10/29 03:16:08;;;;;;;11.40;7.35;;;18.30;99.90;;;;;;5081089;28;20098;-74
2022/10/29 03:18:35;;;;;;;16.25;7.30;;;18.40;99.90;;;;;;5071042;28;20406;-73
2022/10/29 03:21:03;;;;;;;13.20;8.18;;;18.40;99.90;;;;;;5059411;28;20082;-74
2022/10/29 03:23:31;;;;;;;16.42;9.18;;;18.30;99.90;;;;;;5079458;28;20097;-74
2022/10/29 03:25:58;;;;;;;15.75;8.55;;;18.40;99.90;;;;;;5088564;28;20551;-73
2022/10/29 03:28:27;;;;;;;10.57;7.68;;;18.40;99.90;;;;;;5088313;28;20139;-74
2022/10/29 03:30:55;;;;;;;17.08;9.00;;;18.30;99.90;;;;;;5072093;28;20040;-74
2022/10/29 03:33:27;;;;;;;15.38;8.15;;;18.30;99.90;;;;;;5065922;28;20056;-74
2022/10/29 03:35:59;;;;;;;16.58;9.57;;;18.30;99.90;;;;;;5051439;28;20052;-74
2022/10/29 03:38:27;;;;;;;18.13;8.32;;;18.30;99.90;;;;;;5068002;28;20396;-74
2022/10/29 03:40:55;;;;;;;20.92;10.32;;;18.30;99.90;;;;;;5069012;28;20044;-74
2022/10/29 03:43:23;;;;;;;12.73;9.20;;;18.30;99.90;;;;;;5034246;28;20040;-75
2022/10/29 03:45:55;;;;;;;15.73;9.77;;;18.30;99.90;;;;;;5067539;28;20044;-74
2022/10/29 03:48:24;;;;;;;20.52;8.93;;;18.30;99.90;;;;;;5034490;28;20424;-74
2022/10/29 03:51:00;;;;;;;14.13;9.30;;;18.30;99.90;;;;;;5051190;28;20415;-74
2022/10/29 03:53:28;;;;;;;13.75;8.15;;;18.30;99.90;;;;;;5051279;28;20037;-73
2022/10/29 03:55:56;;;;;;;17.38;9.60;;;18.30;99.90;;;;;;5051546;28;20056;-74
2022/10/29 03:58:25;;;;;;;13.13;8.43;;;18.30;99.90;;;;;;5050951;28;20047;-74
2022/10/29 04:01:07;;;;;;;13.48;8.38;;;18.20;99.90;;;;;;5068029;28;20051;-75
2022/10/29 04:03:37;;;;;;;16.27;8.85;;;18.20;99.90;;;;;;5067731;28;20048;-73
2022/10/29 04:06:13;;;;;;;11.88;7.72;;;18.20;99.90;;;;;;5050682;28;20103;-74
2022/10/29 04:08:41;;;;;;;17.70;10.43;;;18.20;99.90;;;;;;5067322;28;20071;-74
2022/10/29 04:11:13;;;;;;;15.10;8.48;;;18.30;99.90;;;;;;5067746;28;20044;-73
2022/10/29 04:13:40;;;;;;;13.82;9.88;;;18.20;99.90;;;;;;5050851;28;20056;-74
2022/10/29 04:16:08;;;;;;;14.30;9.43;;;18.30;99.90;;;;;;5066840;28;20071;-75
2022/10/29 04:18:35;;;;;;;16.63;8.82;;;18.30;99.90;;;;;;5067756;28;20059;-73
2022/10/29 04:21:03;;;;;;;16.20;10.07;;;18.30;99.90;;;;;;5051335;28;20059;-74
2022/10/29 04:23:51;;;;;;;13.98;8.85;;;18.30;99.90;;;;;;5068903;28;20072;-75
2022/10/29 04:26:40;;;;;;;17.33;9.13;;;18.30;99.90;;;;;;5053754;28;20079;-73
2022/10/29 04:29:28;;;;;;;11.75;8.55;;;18.30;99.90;;;;;;5066947;28;20055;-74
2022/10/29 04:31:55;;;;;;;15.73;8.90;;;18.30;99.90;;;;;;5067659;28;20143;-74
2022/10/29 04:34:23;;;;;;;22.45;9.98;;;18.30;99.90;;;;;;5051043;28;20044;-73
2022/10/29 04:36:52;;;;;;;15.90;10.80;;;18.30;99.90;;;;;;5067876;28;20037;-73
2022/10/29 04:39:20;;;;;;;15.52;9.25;;;18.30;99.90;;;;;;5067174;28;20055;-73
2022/10/29 04:41:48;;;;;;;17.15;9.15;;;18.30;99.90;;;;;;5050341;28;20360;-74
2022/10/29 04:44:16;;;;;;;14.73;9.43;;;18.30;99.90;;;;;;5067105;28;20131;-76
2022/10/29 04:46:43;;;;;;;13.57;9.00;;;18.30;99.90;;;;;;5068608;28;20372;-74
2022/10/29 04:49:11;;;;;;;12.65;8.93;;;18.20;99.90;;;;;;5068491;28;20047;-73
2022/10/29 04:51:39;;;;;;;17.85;10.10;;;18.20;99.90;;;;;;5066798;28;20136;-74
2022/10/29 04:54:06;;;;;;;17.10;9.88;;;18.20;99.90;;;;;;5069305;28;20135;-74
2022/10/29 04:56:34;;;;;;;18.63;11.00;;;18.30;99.90;;;;;;5071509;28;20565;-73
2022/10/29 04:59:01;;;;;;;15.10;9.27;;;18.20;99.90;;;;;;5054861;28;20055;-74
2022/10/29 05:01:29;;;;;;;20.42;10.70;;;18.20;99.90;;;;;;5054551;28;20044;-75
2022/10/29 05:03:57;;;;;;;17.00;10.68;;;18.20;99.90;;;;;;5071684;28;20078;-74
2022/10/29 05:06:25;;;;;;;22.00;10.45;;;18.20;99.90;;;;;;5071904;28;20102;-75
2022/10/29 05:08:52;;;;;;;15.27;10.50;;;18.20;99.90;;;;;;5072436;28;20032;-73
2022/10/29 05:11:20;;;;;;;15.63;9.02;;;18.20;99.90;;;;;;5072528;28;20049;-75
2022/10/29 05:13:48;;;;;;;17.05;10.25;;;18.20;99.90;;;;;;5054298;28;20138;-74
2022/10/29 05:16:15;;;;;;;17.60;10.27;;;18.20;99.90;;;;;;5053456;28;20090;-74
2022/10/29 05:18:43;;;;;;;19.10;9.73;;;18.20;99.90;;;;;;5071205;28;20517;-73
2022/10/29 05:21:10;;;;;;;16.40;9.77;;;18.30;99.90;;;;;;5072289;28;20078;-74
2022/10/29 05:23:38;;;;;;;19.58;10.48;;;18.20;99.90;;;;;;5054382;28;20055;-73
2022/10/29 05:26:06;;;;;;;16.30;10.27;;;18.20;99.90;;;;;;5070903;28;20048;-73
2022/10/29 05:28:33;;;;;;;16.83;9.77;;;18.20;99.90;;;;;;5054518;28;20134;-75
2022/10/29 05:31:01;;;;;;;17.65;11.05;;;18.30;99.90;;;;;;5054310;28;20044;-75
2022/10/29 05:33:28;;;;;;;16.80;11.10;;;18.30;99.90;;;;;;5070868;28;20055;-73
2022/10/29 05:35:59;;;;;;;22.58;10.15;;;18.40;99.90;;;;;;5070153;28;20063;-74
2022/10/29 05:38:26;;;;;;;23.75;10.18;;;18.50;99.90;;;;;;5054014;28;20114;-73
2022/10/29 05:40:57;;;;;;;17.63;9.70;;;18.50;99.90;;;;;;5071230;28;20569;-73
2022/10/29 05:43:25;;;;;;;19.77;10.68;;;18.60;99.90;;;;;;5053533;28;20055;-73
2022/10/29 05:45:53;;;;;;;16.42;11.30;;;18.70;99.90;;;;;;5069860;28;20055;-75
2022/10/29 05:48:20;;;;;;;21.13;10.43;;;18.80;99.90;;;;;;5070447;28;20422;-74
2022/10/29 05:50:48;;;;;;;14.57;10.32;;;18.90;99.90;;;;;;5070295;28;20055;-73
2022/10/29 05:53:16;;;;;;;20.05;11.48;;;19.00;99.90;;;;;;5053068;28;20080;-73
2022/10/29 05:55:43;;;;;;;15.40;10.45;;;19.20;99.90;;;;;;5053007;28;20060;-74
2022/10/29 05:58:12;;;;;;;16.95;11.80;;;19.40;99.90;;;;;;5070032;28;20058;-74
2022/10/29 06:00:43;;;;;;;17.83;9.13;;;19.60;99.90;;;;;;5069776;28;20045;-75
2022/10/29 06:03:18;;;;;;;16.45;9.32;;;19.70;99.90;;;;;;5070995;28;20056;-74
2022/10/29 06:05:48;;;;;;;14.43;9.30;;;20.00;99.90;;;;;;5069470;28;20128;-73
2022/10/29 06:08:16;;;;;;;16.30;10.77;;;20.20;99.90;;;;;;5036224;28;20045;-75
2022/10/29 06:10:44;;;;;;;15.90;10.15;;;20.60;99.90;;;;;;5052948;28;20040;-72
2022/10/29 06:13:13;;;;;;;15.05;9.48;;;21.00;99.90;;;;;;5052680;28;20190;-73
2022/10/29 06:15:42;;;;;;;14.13;9.15;;;21.30;99.90;;;;;;5050217;28;20052;-73
2022/10/29 06:18:09;;;;;;;17.65;9.85;;;21.60;99.90;;;;;;5069107;28;20136;-73
2022/10/29 06:20:38;;;;;;;16.85;9.30;;;21.80;99.90;;;;;;5035924;28;20044;-71
2022/10/29 06:23:06;;;;;;;14.45;9.80;;;21.80;99.90;;;;;;5069043;28;20581;-72
2022/10/29 06:25:33;;;;;;;17.92;8.70;;;21.80;99.90;;;;;;5036044;28;20406;-72
2022/10/29 06:28:01;;;;;;;14.43;8.55;;;21.70;99.90;;;;;;5068835;28;20040;-73
2022/10/29 06:30:31;;;;;;;22.38;10.07;;;21.50;99.90;;;;;;5068443;28;20048;-71
2022/10/29 06:32:59;;;;;;;13.02;7.82;;;21.80;99.90;;;;;;5068618;28;20064;-73
2022/10/29 06:35:27;;;;;;;19.90;8.85;;;22.20;99.90;;;;;;5068736;28;20113;-73
2022/10/29 06:37:55;;;;;;;15.25;8.80;;;22.60;99.90;;;;;;5052371;28;20113;-73
2022/10/29 06:40:22;;;;;;;14.68;9.00;;;22.90;99.90;;;;;;5068762;28;20044;-72
2022/10/29 06:43:01;;;;;;;13.52;8.55;;;23.00;99.90;;;;;;5052299;28;20570;-71
2022/10/29 06:45:29;;;;;;;14.43;7.72;;;23.10;99.90;;;;;;5068889;28;20052;-72
2022/10/29 06:47:57;;;;;;;13.23;7.50;;;23.00;99.90;;;;;;5051765;28;20646;-74
2022/10/29 06:50:25;;;;;;;17.58;7.35;;;23.00;99.90;;;;;;5036259;28;20106;-73
2022/10/29 06:53:05;;;;;;;12.50;7.35;;;23.00;99.90;;;;;;5069083;28;20044;-74
2022/10/29 06:55:34;;;;;;;13.93;7.88;;;23.10;99.90;;;;;;5035931;28;20155;-72
2022/10/29 06:58:04;;;;;;;16.48;7.65;;;23.30;99.90;;;;;;5068476;28;20083;-73
2022/10/29 07:00:33;;;;;;;14.40;7.55;;;23.30;99.90;;;;;;5052223;28;20588;-72
2022/10/29 07:03:03;;;;;;;12.65;7.72;;;23.20;99.90;;;;;;5068425;28;20038;-74
2022/10/29 07:05:32;;;;;;;12.45;6.82;;;23.10;99.90;;;;;;5035504;28;20076;-72
2022/10/29 07:08:00;;;;;;;12.90;7.47;;;22.80;99.90;;;;;;5050639;28;20239;-73
2022/10/29 07:10:30;;;;;;;12.65;7.85;;;22.70;99.90;;;;;;5073670;28;20049;-73
2022/10/29 07:12:58;;;;;;;10.43;7.00;;;22.80;99.90;;;;;;5077582;28;20047;-72
2022/10/29 07:15:27;;;;;;;17.73;6.57;;;22.90;99.90;;;;;;5049413;28;20471;-74
2022/10/29 07:18:07;;;;;;;11.93;7.05;;;23.10;99.90;;;;;;5076688;28;20087;-75
2022/10/29 07:20:39;;;;;;;10.52;5.68;;;23.40;99.90;;;;;;5050652;28;20403;-74
2022/10/29 07:23:07;;;;;;;9.70;6.18;;;23.60;99.90;;;;;;5078113;28;20375;-73
2022/10/29 07:25:36;;;;;;;9.68;6.63;;;23.50;99.90;;;;;;5073202;28;20182;-73
2022/10/29 07:28:09;;;;;;;12.00;6.82;;;23.00;99.90;;;;;;5060306;28;20139;-73
2022/10/29 07:30:37;;;;;;;12.18;6.50;;;22.90;99.90;;;;;;5059186;28;20149;-73
2022/10/29 07:33:05;;;;;;;8.63;5.35;;;23.00;99.90;;;;;;5067997;28;20048;-74
2022/10/29 07:35:34;;;;;;;13.32;7.10;;;23.10;99.90;;;;;;5051303;28;20136;-72
2022/10/29 07:38:03;;;;;;;11.05;5.60;;;23.50;99.90;;;;;;5067323;28;20102;-72
2022/10/29 07:40:31;;;;;;;9.00;5.65;;;23.70;99.90;;;;;;5050696;28;20834;-72
2022/10/29 07:42:58;;;;;;;8.23;6.18;;;23.80;99.90;;;;;;5067443;28;20084;-73
2022/10/29 07:45:27;;;;;;;12.60;5.50;;;24.00;99.90;;;;;;5067667;28;20052;-72
2022/10/29 07:47:59;;;;;;;10.57;5.60;;;24.10;99.90;;;;;;5067307;28;20071;-74
2022/10/29 07:50:30;;;;;;;11.70;5.53;;;24.20;99.90;;;;;;5033991;28;20125;-73
2022/10/29 07:53:02;;;;;;;9.25;4.95;;;24.20;99.90;;;;;;5033932;28;20053;-76
2022/10/29 07:55:30;;;;;;;11.40;5.18;;;24.10;99.90;;;;;;5047740;28;20853;-72
2022/10/29 07:58:01;;;;;;;10.95;4.82;;;23.90;99.90;;;;;;5031085;28;20102;-71
2022/10/29 08:00:34;;;;;;;10.27;5.63;;;23.60;99.90;;;;;;5047670;28;20045;-72
2022/10/29 08:03:02;;;;;;;18.08;6.82;;;23.30;99.90;;;;;;5063919;28;20565;-72
2022/10/29 08:05:31;;;;;;;24.35;6.50;;;23.10;99.90;;;;;;5045365;28;20410;-74
2022/10/29 08:07:58;;;;;;;7.03;4.93;;;23.20;99.90;;;;;;5014836;28;20044;-73
2022/10/29 08:10:28;;;;;;;8.63;4.80;;;23.40;99.90;;;;;;5031057;28;20084;-72
2022/10/29 08:13:00;;;;;;;12.88;5.30;;;23.60;99.90;;;;;;5048848;28;20049;-72
2022/10/29 08:15:30;;;;;;;16.35;5.75;;;23.80;99.90;;;;;;5047533;28;20133;-75
2022/10/29 08:17:58;;;;;;;10.65;6.07;;;24.10;99.90;;;;;;5048466;28;20064;-72
2022/10/29 08:20:27;;;;;;;9.85;5.85;;;24.30;99.90;;;;;;5030772;28;20487;-72
2022/10/29 08:22:57;;;;;;;6.68;4.70;;;24.50;99.90;;;;;;5030755;28;20399;-72
2022/10/29 08:25:27;;;;;;;10.20;5.60;;;24.80;99.90;;;;;;5035229;28;20059;-73
2022/10/29 08:28:03;;;;;;;11.43;5.97;;;25.10;99.90;;;;;;5043698;28;20143;-72
2022/10/29 08:30:31;;;;;;;7.40;4.82;;;25.20;99.90;;;;;;5046426;28;20127;-72
2022/10/29 08:32:59;;;;;;;7.20;4.22;;;25.40;99.90;;;;;;5066103;28;20040;-72
2022/10/29 08:35:28;;;;;;;9.10;3.97;;;25.40;99.90;;;;;;5066819;28;20057;-73
2022/10/29 08:37:56;;;;;;;8.63;4.50;;;25.50;99.90;;;;;;5060528;28;20403;-74
2022/10/29 08:40:27;;;;;;;8.70;4.10;;;25.60;99.90;;;;;;5033561;28;20045;-73
2022/10/29 08:43:19;;;;;;;6.30;3.45;;;25.60;99.90;;;;;;5049447;28;20049;-73
2022/10/29 08:45:49;;;;;;;9.70;4.07;;;25.60;99.90;;;;;;5031168;28;20080;-73
2022/10/29 08:48:17;;;;;;;7.68;3.72;;;25.50;99.90;;;;;;5060260;28;20045;-74
2022/10/29 08:51:08;;;;;;;11.60;3.97;;;25.40;99.90;;;;;;5033933;28;20049;-72
2022/10/29 08:53:53;;;;;;;5.82;3.33;;;25.40;99.90;;;;;;5067820;28;20044;-74
2022/10/29 08:57:07;;;;;;;5.90;3.90;;;25.60;99.90;;;;;;5051446;28;20407;-72
2022/10/29 08:59:40;;;;;;;9.05;4.05;;;25.60;99.90;;;;;;5050304;28;20132;-72
2022/10/29 09:02:17;;;;;;;7.00;3.88;;;25.50;99.90;;;;;;5032710;28;20080;-72
2022/10/29 09:04:45;;;;;;;8.65;3.90;;;25.20;99.90;;;;;;5053096;28;20045;-72
2022/10/29 09:07:28;;;;;;;7.72;4.22;;;25.00;99.90;;;;;;5067144;28;20324;-72
2022/10/29 09:10:29;;;;;;;7.00;3.63;;;25.10;99.90;;;;;;5053600;28;20395;-73
2022/10/29 09:13:31;;;;;;;7.32;3.90;;;25.10;99.90;;;;;;5070534;28;20036;-72
2022/10/29 09:16:05;;;;;;;7.38;4.10;;;25.20;99.90;;;;;;5066957;28;20048;-75
2022/10/29 09:18:36;;;;;;;5.93;3.75;;;25.20;99.90;;;;;;5058612;28;20063;-73
2022/10/29 09:21:06;;;;;;;5.65;3.40;;;25.30;99.90;;;;;;5063255;28;20054;-73
2022/10/29 09:23:46;;;;;;;8.15;4.25;;;25.40;99.90;;;;;;5060462;28;20045;-73
2022/10/29 09:26:28;;;;;;;8.80;4.20;;;25.30;99.90;;;;;;5066278;28;20044;-75
2022/10/29 09:29:17;;;;;;;5.90;4.05;;;25.20;99.90;;;;;;5035766;28;20044;-73
2022/10/29 09:32:12;;;;;;;7.53;3.53;;;24.90;99.90;;;;;;5052517;28;20040;-74
2022/10/29 09:35:21;;;;;;;8.90;3.83;;;25.10;99.90;;;;;;5051282;28;20654;-75
2022/10/29 09:37:54;;;;;;;8.20;3.53;;;25.40;99.90;;;;;;5058716;28;20222;-73
2022/10/29 09:40:31;;;;;;;8.07;3.90;;;25.60;99.90;;;;;;5063377;28;20049;-74
2022/10/29 09:43:03;;;;;;;8.95;4.07;;;25.50;99.90;;;;;;5051466;28;20777;-74
2022/10/29 09:45:47;;;;;;;7.93;3.63;;;25.40;99.90;;;;;;5065483;28;20044;-74
2022/10/29 09:48:35;;;;;;;7.15;3.58;;;25.10;99.90;;;;;;5066730;28;20048;-74
2022/10/29 09:51:12;;;;;;;4.90;3.22;;;25.10;99.90;;;;;;5064926;28;20051;-75
2022/10/29 09:53:40;;;;;;;5.32;3.63;;;25.30;99.90;;;;;;5046304;28;20044;-74
2022/10/29 09:56:08;;;;;;;8.07;3.03;;;25.50;99.90;;;;;;5063103;28;20044;-75
2022/10/29 09:58:43;;;;;;;7.72;2.95;;;25.50;99.90;;;;;;5049751;28;20074;-72
2022/10/29 10:01:11;;;;;;;8.98;3.95;;;25.30;99.90;;;;;;5062165;28;20059;-73
2022/10/29 10:03:46;;;;;;;7.10;4.00;;;25.30;99.90;;;;;;5064704;28;20431;-73
2022/10/29 10:06:15;;;;;;;7.18;3.25;;;25.30;99.90;;;;;;5057140;28;20047;-73
2022/10/29 10:09:04;;;;;;;7.32;3.30;;;25.20;99.90;;;;;;5045296;28;20060;-75
2022/10/29 10:11:39;;;;;;;9.20;4.25;;;25.30;99.90;;;;;;5044945;28;20040;-75
2022/10/29 10:14:21;;;;;;;9.10;4.00;;;25.10;99.90;;;;;;5044708;28;20163;-74
2022/10/29 10:16:59;;;;;;;7.68;3.45;;;25.30;99.90;;;;;;5045857;28;20501;-75
2022/10/29 10:19:31;;;;;;;10.02;3.45;;;25.50;99.90;;;;;;5035074;28;20056;-76
2022/10/29 10:22:02;;;;;;;4.85;3.33;;;25.50;99.90;;;;;;5064737;28;20056;-75
2022/10/29 10:24:32;;;;;;;6.22;3.35;;;25.60;99.90;;;;;;5063346;28;20068;-75
2022/10/29 10:27:01;;;;;;;12.10;10.80;;;25.70;99.90;;;;;;5057314;28;21238;-75
2022/10/29 10:29:28;;;;;;;6.47;3.70;;;25.70;99.90;;;;;;5062289;28;20797;-75
2022/10/29 10:31:56;;;;;;;6.05;3.28;;;25.60;99.90;;;;;;5060914;28;20181;-74
2022/10/29 10:34:41;;;;;;;5.35;2.60;;;25.40;99.90;;;;;;5031331;28;20048;-74
2022/10/29 10:37:09;;;;;;;8.38;3.22;;;25.40;99.90;;;;;;5060155;28;20044;-74
2022/10/29 10:39:57;;;;;;;5.38;3.38;;;25.30;99.90;;;;;;5065357;28;20045;-74
2022/10/29 10:42:31;;;;;;;7.65;3.33;;;25.40;99.90;;;;;;5043690;28;20049;-74
2022/10/29 10:45:21;;;;;;;4.60;3.10;;;25.50;99.90;;;;;;5048973;28;20072;-75
2022/10/29 10:47:57;;;;;;;4.93;2.35;;;25.50;99.90;;;;;;5036276;28;20052;-74
2022/10/29 10:50:33;;;;;;;6.32;2.65;;;25.70;99.90;;;;;;5025768;28;20114;-74
2022/10/29 10:53:19;;;;;;;5.53;2.83;;;25.50;99.90;;;;;;5064493;28;20052;-75
2022/10/29 10:55:51;;;;;;;4.15;2.28;;;25.60;99.90;;;;;;5051617;28;20057;-74
2022/10/29 10:58:41;;;;;;;5.72;2.20;;;25.50;99.70;;;;;;5052131;28;20499;-75
2022/10/29 11:01:14;;;;;;;5.47;2.55;;;25.60;98.80;;;;;;5044376;28;20065;-74
2022/10/29 11:04:05;;;;;;;9.48;3.10;;;25.60;99.70;;;;;;5069491;28;20202;-76
2022/10/29 11:06:39;;;;;;;3.90;1.98;;;25.50;99.90;;;;;;5076229;28;20446;-75
2022/10/29 11:09:38;;;;;;;5.70;2.65;;;25.40;99.90;;;;;;5031188;28;20542;-76
2022/10/29 11:12:06;;;;;;;5.00;2.63;;;25.40;99.90;;;;;;5059263;28;20040;-75
2022/10/29 11:15:17;;;;;;;7.63;3.05;;;25.20;99.80;;;;;;5050698;28;20098;-75
2022/10/29 11:17:59;;;;;;;6.38;3.30;;;25.00;99.20;;;;;;5047360;28;20783;-75
2022/10/29 11:20:32;;;;;;;7.30;3.00;;;25.10;98.80;;;;;;5059429;28;20048;-75
2022/10/29 11:23:22;;;;;;;4.90;2.50;;;25.10;98.60;;;;;;5049574;28;20426;-75
2022/10/29 11:26:10;;;;;;;8.10;2.80;;;25.20;98.10;;;;;;5084075;28;20068;-76
2022/10/29 11:28:46;;;;;;;5.55;2.40;;;25.20;98.30;;;;;;5030882;28;20051;-74
2022/10/29 11:31:18;;;;;;;;;;;25.30;98.20;;;;;;5049504;28;20401;-75
2022/10/29 11:33:52;;;;;;;4.55;2.50;;;25.40;98.40;;;;;;5048147;28;19928;-75
2022/10/29 11:36:25;;;;;;;9.02;2.65;;;25.40;98.70;;;;;;5052686;28;20061;-75
2022/10/29 11:39:08;;;;;;;5.45;2.95;;;25.20;99.00;;;;;;5052586;28;20410;-75
2022/10/29 11:42:08;;;;;;;10.02;3.88;;;25.00;99.50;;;;;;5058599;28;20049;-75
2022/10/29 11:44:38;;;;;;;5.03;2.40;;;24.90;99.90;;;;;;5046517;28;20053;-75
2022/10/29 11:47:34;;;;;;;7.80;2.78;;;24.80;99.90;;;;;;5043871;28;20122;-75
2022/10/29 11:50:27;;;;;;;6.75;3.08;;;24.60;99.90;;;;;;5050662;28;20114;-74
2022/10/29 11:53:17;;;;;;;4.10;2.30;;;24.70;99.90;;;;;;5034139;28;20150;-74
2022/10/29 11:56:03;;;;;;;6.45;2.97;;;24.90;99.90;;;;;;5067328;28;20080;-74
2022/10/29 11:58:58;;;;;;;4.68;3.10;;;24.70;99.90;;;;;;5067730;28;20080;-74
2022/10/29 12:01:28;;;;;;;6.72;2.67;;;24.50;99.90;;;;;;5066732;28;20063;-75
2022/10/29 12:04:16;;;;;;;7.25;3.60;;;24.30;99.90;;;;;;5050655;28;20059;-75
2022/10/29 12:07:02;;;;;;;6.38;2.72;;;24.30;99.90;;;;;;5067163;28;20063;-76
2022/10/29 12:09:38;;;;;;;6.15;2.88;;;24.30;99.90;;;;;;5051155;28;20041;-76
2022/10/29 12:12:50;;;;;;;8.65;4.05;;;24.30;99.90;;;;;;5049174;28;20044;-75
2022/10/29 12:15:31;;;;;;;10.70;3.50;;;24.20;99.90;;;;;;5003305;28;20060;-76
2022/10/29 12:18:12;;;;;;;6.95;3.47;;;24.20;99.90;;;;;;4983538;28;20143;-76
2022/10/29 12:20:43;;;;;;;7.32;3.75;;;24.30;99.90;;;;;;5054370;28;20102;-76
2022/10/29 12:23:14;;;;;;;7.10;4.15;;;24.30;99.90;;;;;;5045933;28;20045;-76
2022/10/29 12:25:54;;;;;;;5.70;4.00;;;24.30;99.90;;;;;;5049942;28;20063;-77
2022/10/29 12:28:45;;;;;;;7.35;4.13;;;24.30;99.90;;;;;;5056347;28;20130;-76
2022/10/29 12:31:18;;;;;;;11.25;4.82;;;24.20;99.90;;;;;;5023658;28;20045;-75
2022/10/29 12:34:04;;;;;;;6.72;4.80;;;24.20;99.90;;;;;;5059829;28;20036;-75
2022/10/29 12:36:48;;;;;;;6.85;3.88;;;24.30;99.90;;;;;;5034060;28;20048;-76
2022/10/29 12:39:40;;;;;;;7.43;4.13;;;24.20;99.90;;;;;;5037385;28;20068;-77
2022/10/29 12:42:26;;;;;;;9.65;4.68;;;24.30;99.90;;;;;;5043641;28;20053;-74
2022/10/29 12:45:18;;;;;;;9.05;4.55;;;24.40;99.90;;;;;;5045056;28;20072;-76
2022/10/29 12:48:01;;;;;;;11.18;5.35;;;24.40;99.90;;;;;;5050404;28;20045;-76
2022/10/29 12:51:18;;;;;;;10.75;4.72;;;24.20;99.90;;;;;;5030142;28;20748;-74
2022/10/29 12:53:49;;;;;;;8.38;5.57;;;24.20;99.90;;;;;;5017154;28;20053;-76
2022/10/29 12:56:18;;;;;;;11.15;5.80;;;24.20;99.90;;;;;;5042355;28;20045;-75
2022/10/29 12:58:51;;;;;;;8.23;5.63;;;24.10;99.90;;;;;;5046520;28;20064;-75
2022/10/29 13:01:25;;;;;;;9.35;5.35;;;24.10;99.90;;;;;;5031729;28;20506;-75
2022/10/29 13:04:20;;;;;;;11.38;5.40;;;24.00;99.90;;;;;;5040095;28;20048;-76
2022/10/29 13:07:02;;;;;;;8.48;5.20;;;23.80;99.90;;;;;;5052856;28;20088;-76
2022/10/29 13:09:35;;;;;;;10.43;5.25;;;23.80;99.90;;;;;;5030972;28;20082;-76
2022/10/29 13:12:09;;;;;;;9.93;5.47;;;23.70;99.90;;;;;;5036521;28;20045;-75
2022/10/29 13:14:48;;;;;;;7.78;5.32;;;23.60;99.90;;;;;;5053665;28;20052;-75
2022/10/29 13:17:37;;;;;;;10.57;4.88;;;23.50;99.90;;;;;;5020468;28;20525;-76